Time;durP1;ratioP1;P1;durP2;ratioP2;P2;SDS_P1;SDS_P2;PMS_P1;PMS_P2;Temp;Humidity;BMP_temperature;BMP_pressure;BME280_temperature;BME280_humidity;BME280_pressure;Samples;Min_cycle;Max_cycle;Signal;HPM_P1;HPM_P2
2022/08/07 00:00:57;;;;;;;7.40;3.85;;;13.10;99.90;;;;;;6146270;23;20119;-88
2022/08/07 00:03:24;;;;;;;5.80;3.78;;;13.10;99.90;;;;;;6120613;23;20009;-88
2022/08/07 00:05:51;;;;;;;7.07;3.90;;;13.00;99.90;;;;;;6147082;23;20341;-88
2022/08/07 00:08:18;;;;;;;6.88;3.80;;;13.00;99.90;;;;;;6120880;23;20026;-88
2022/08/07 00:10:44;;;;;;;7.45;3.97;;;13.00;99.90;;;;;;6144513;23;20025;-88
2022/08/07 00:13:10;;;;;;;6.75;4.07;;;13.00;99.90;;;;;;6146034;23;20009;-89
2022/08/07 00:15:36;;;;;;;6.55;4.05;;;12.90;99.90;;;;;;6144880;23;20441;-88
2022/08/07 00:18:03;;;;;;;6.20;3.80;;;12.90;99.90;;;;;;6145462;23;20519;-88
2022/08/07 00:20:29;;;;;;;5.93;3.35;;;12.90;99.90;;;;;;6147340;23;20014;-88
2022/08/07 00:22:55;;;;;;;5.78;3.45;;;12.90;99.90;;;;;;6145284;23;20018;-88
2022/08/07 00:25:22;;;;;;;6.68;4.13;;;12.90;99.90;;;;;;6144444;23;20039;-88
2022/08/07 00:27:47;;;;;;;7.15;3.75;;;12.80;99.90;;;;;;6146352;23;20084;-88
2022/08/07 00:30:14;;;;;;;5.50;3.28;;;12.80;99.90;;;;;;6146058;23;20061;-88
2022/08/07 00:32:39;;;;;;;6.45;4.03;;;12.70;99.90;;;;;;6147111;23;20014;-88
2022/08/07 00:35:05;;;;;;;6.30;3.53;;;12.70;99.90;;;;;;6146934;22;20029;-88
2022/08/07 00:37:31;;;;;;;8.05;4.40;;;12.70;99.90;;;;;;6146946;23;20368;-88
2022/08/07 00:39:57;;;;;;;7.60;4.22;;;12.70;99.90;;;;;;6146013;23;20537;-88
2022/08/07 00:42:23;;;;;;;7.13;3.97;;;12.70;99.90;;;;;;6144745;22;20406;-88
2022/08/07 00:44:49;;;;;;;7.60;3.97;;;12.70;99.90;;;;;;6145139;23;20017;-88
2022/08/07 00:47:14;;;;;;;7.20;4.57;;;12.70;99.90;;;;;;6147286;22;20092;-88
2022/08/07 00:49:40;;;;;;;6.55;3.70;;;12.70;99.90;;;;;;6146650;22;20029;-88
2022/08/07 00:52:07;;;;;;;6.43;3.72;;;12.70;99.90;;;;;;6147054;22;20021;-88
2022/08/07 00:54:33;;;;;;;8.38;4.55;;;12.60;99.90;;;;;;6145599;23;20492;-88
2022/08/07 00:56:59;;;;;;;6.93;4.05;;;12.60;99.90;;;;;;6120558;23;20014;-88
2022/08/07 00:59:25;;;;;;;6.85;4.57;;;12.60;99.90;;;;;;6145187;23;20103;-88
2022/08/07 01:01:51;;;;;;;6.55;3.85;;;12.50;99.90;;;;;;6145264;23;20024;-88
2022/08/07 01:04:17;;;;;;;8.23;3.53;;;12.50;99.90;;;;;;6145194;23;20018;-88
2022/08/07 01:06:44;;;;;;;8.10;3.90;;;12.50;99.90;;;;;;6146415;23;20472;-88
2022/08/07 01:09:10;;;;;;;8.90;3.88;;;12.50;99.90;;;;;;6144600;23;20013;-88
2022/08/07 01:11:36;;;;;;;7.05;3.90;;;12.40;99.90;;;;;;6146399;23;20142;-88
2022/08/07 01:14:03;;;;;;;8.68;4.45;;;12.40;99.90;;;;;;6144301;23;20017;-88
2022/08/07 01:16:29;;;;;;;7.45;3.95;;;12.30;99.90;;;;;;6144805;23;20018;-88
2022/08/07 01:18:56;;;;;;;6.78;3.80;;;12.30;99.90;;;;;;6145069;23;20024;-87
2022/08/07 01:21:25;;;;;;;6.25;3.85;;;12.50;99.90;;;;;;6146591;22;20438;-88
2022/08/07 01:23:52;;;;;;;6.85;3.35;;;12.30;99.90;;;;;;6119686;23;20059;-88
2022/08/07 01:26:20;;;;;;;7.15;3.78;;;12.30;99.90;;;;;;6146416;23;20501;-88
2022/08/07 01:28:47;;;;;;;6.20;3.47;;;12.30;99.90;;;;;;6144574;22;20018;-88
2022/08/07 01:31:15;;;;;;;7.28;3.60;;;12.30;99.90;;;;;;6145271;23;20024;-88
2022/08/07 01:33:41;;;;;;;7.30;3.88;;;12.30;99.90;;;;;;6146684;23;20017;-88
2022/08/07 01:36:10;;;;;;;8.52;4.20;;;12.30;99.90;;;;;;6120208;23;20109;-88
2022/08/07 01:38:37;;;;;;;7.85;3.92;;;12.20;99.90;;;;;;6146135;23;20018;-88
2022/08/07 01:41:05;;;;;;;7.18;4.05;;;12.20;99.90;;;;;;6145142;23;20013;-88
2022/08/07 01:43:32;;;;;;;7.43;4.10;;;12.20;99.90;;;;;;6144827;23;20071;-88
2022/08/07 01:46:00;;;;;;;7.35;3.80;;;12.20;99.90;;;;;;6145228;23;20388;-88
2022/08/07 01:48:26;;;;;;;6.38;4.00;;;12.20;99.90;;;;;;6144864;23;20457;-88
2022/08/07 01:50:57;;;;;;;8.38;4.35;;;12.10;99.90;;;;;;6144203;23;20025;-88
2022/08/07 01:53:25;;;;;;;6.20;3.63;;;12.10;99.90;;;;;;6144497;23;20522;-87
2022/08/07 01:55:57;;;;;;;7.85;3.92;;;12.10;99.90;;;;;;6144385;23;20392;-88
2022/08/07 01:58:30;;;;;;;7.47;3.63;;;12.10;99.90;;;;;;6145142;23;20017;-88
2022/08/07 02:01:03;;;;;;;6.72;3.70;;;12.10;99.90;;;;;;6146421;23;20018;-88
2022/08/07 02:03:32;;;;;;;6.60;3.55;;;12.10;99.90;;;;;;6147066;23;20336;-88
2022/08/07 02:06:02;;;;;;;6.13;3.50;;;12.10;99.90;;;;;;6146845;23;20014;-88
2022/08/07 02:08:31;;;;;;;6.75;3.58;;;12.10;99.90;;;;;;6145972;22;20021;-88
2022/08/07 02:10:59;;;;;;;6.22;3.33;;;12.10;99.90;;;;;;6144551;22;20461;-87
2022/08/07 02:13:27;;;;;;;8.45;3.80;;;12.00;99.90;;;;;;6144834;23;20114;-87
2022/08/07 02:15:55;;;;;;;6.43;3.88;;;12.00;99.90;;;;;;6144376;23;20442;-88
2022/08/07 02:18:22;;;;;;;6.38;3.50;;;12.00;99.90;;;;;;6146734;23;20342;-88
2022/08/07 02:20:51;;;;;;;7.82;3.58;;;11.90;99.90;;;;;;6145081;23;20021;-88
2022/08/07 02:23:18;;;;;;;6.70;3.50;;;11.90;99.90;;;;;;6144679;23;20020;-88
2022/08/07 02:25:45;;;;;;;6.95;3.75;;;11.90;99.90;;;;;;6144263;23;20057;-88
2022/08/07 02:28:13;;;;;;;8.07;4.70;;;11.90;99.90;;;;;;6146462;23;20096;-88
2022/08/07 02:30:41;;;;;;;6.90;3.70;;;11.90;99.90;;;;;;6144609;22;20032;-88
2022/08/07 02:33:07;;;;;;;7.75;3.80;;;11.80;99.90;;;;;;6146554;23;20035;-88
2022/08/07 02:35:36;;;;;;;7.32;4.05;;;11.80;99.90;;;;;;6145607;23;20115;-88
2022/08/07 02:38:03;;;;;;;6.75;3.65;;;11.80;99.90;;;;;;6146896;23;20017;-88
2022/08/07 02:40:31;;;;;;;8.82;4.10;;;11.80;99.90;;;;;;6120182;23;20028;-88
2022/08/07 02:42:57;;;;;;;6.90;4.18;;;11.80;99.90;;;;;;6120077;23;20017;-87
2022/08/07 02:45:26;;;;;;;8.98;4.30;;;11.80;99.90;;;;;;6144316;23;20063;-88
2022/08/07 02:47:52;;;;;;;6.90;4.47;;;11.80;99.90;;;;;;6144720;23;20544;-87
2022/08/07 02:50:18;;;;;;;7.00;4.35;;;11.70;99.90;;;;;;6143593;23;20017;-87
2022/08/07 02:52:53;;;;;;;6.78;3.95;;;11.70;99.90;;;;;;6146341;23;20009;-87
2022/08/07 02:55:25;;;;;;;6.50;3.55;;;11.80;99.90;;;;;;6144010;23;20022;-88
2022/08/07 02:57:53;;;;;;;7.05;3.78;;;11.80;99.90;;;;;;6144533;23;20048;-88
2022/08/07 03:00:19;;;;;;;8.70;4.10;;;11.80;99.90;;;;;;6144236;22;20021;-88
2022/08/07 03:02:47;;;;;;;8.77;3.90;;;11.80;99.90;;;;;;6145722;23;20052;-89
2022/08/07 03:05:14;;;;;;;8.20;4.47;;;11.70;99.90;;;;;;6145901;23;20067;-89
2022/08/07 03:07:41;;;;;;;6.68;3.60;;;11.80;99.90;;;;;;6144020;23;20027;-88
2022/08/07 03:10:08;;;;;;;6.20;3.55;;;11.70;99.90;;;;;;6144609;23;20030;-88
2022/08/07 03:12:35;;;;;;;8.35;3.97;;;11.80;99.90;;;;;;6145938;23;20086;-88
2022/08/07 03:15:02;;;;;;;7.85;4.68;;;11.70;99.90;;;;;;6120029;23;20017;-87
2022/08/07 03:17:28;;;;;;;8.80;4.43;;;11.70;99.90;;;;;;6146601;23;20021;-88
2022/08/07 03:19:55;;;;;;;7.00;4.05;;;11.70;99.90;;;;;;6143905;23;20113;-88
2022/08/07 03:22:22;;;;;;;8.60;4.18;;;11.70;99.90;;;;;;6145971;23;20445;-88
2022/08/07 03:24:48;;;;;;;8.55;4.05;;;11.70;99.90;;;;;;6146233;23;20387;-88
2022/08/07 03:27:15;;;;;;;7.70;4.80;;;11.70;99.90;;;;;;6146820;23;20041;-88
2022/08/07 03:29:49;;;;;;;10.32;4.70;;;11.70;99.90;;;;;;6145973;23;20017;-87
2022/08/07 03:32:17;;;;;;;7.82;4.35;;;11.60;99.90;;;;;;6146315;23;20013;-88
2022/08/07 03:34:47;;;;;;;8.60;4.13;;;11.60;99.90;;;;;;6145173;23;20017;-87
2022/08/07 03:37:13;;;;;;;13.13;5.10;;;11.60;99.90;;;;;;6144397;23;20013;-88
2022/08/07 03:39:39;;;;;;;7.47;4.05;;;11.60;99.90;;;;;;6145437;23;20082;-87
2022/08/07 03:42:05;;;;;;;7.20;3.95;;;11.60;99.90;;;;;;6144619;23;20454;-88
2022/08/07 03:44:34;;;;;;;7.03;4.05;;;11.50;99.90;;;;;;6145259;23;20495;-87
2022/08/07 03:47:01;;;;;;;10.27;4.78;;;11.50;99.90;;;;;;6146235;23;20117;-87
2022/08/07 03:49:27;;;;;;;6.50;3.88;;;11.50;99.90;;;;;;6143947;23;20063;-88
2022/08/07 03:51:55;;;;;;;7.80;4.00;;;11.50;99.90;;;;;;6143759;23;20060;-88
2022/08/07 03:54:21;;;;;;;8.57;4.50;;;11.50;99.90;;;;;;6143750;22;20069;-88
2022/08/07 03:56:48;;;;;;;6.63;3.67;;;11.50;99.90;;;;;;6119517;23;20025;-87
2022/08/07 03:59:14;;;;;;;7.00;3.90;;;11.40;99.90;;;;;;6144738;23;20021;-88
2022/08/07 04:01:42;;;;;;;7.13;4.20;;;11.40;99.90;;;;;;6145604;23;20028;-88
2022/08/07 04:04:08;;;;;;;8.02;4.30;;;11.40;99.90;;;;;;6143704;22;20088;-88
2022/08/07 04:06:37;;;;;;;7.22;4.30;;;11.40;99.90;;;;;;6145531;23;20009;-88
2022/08/07 04:09:03;;;;;;;7.93;3.72;;;11.40;99.90;;;;;;6144397;23;20018;-88
2022/08/07 04:11:31;;;;;;;6.47;3.40;;;11.40;99.90;;;;;;6144159;23;20453;-88
2022/08/07 04:13:58;;;;;;;7.05;3.95;;;11.40;99.90;;;;;;6144012;23;20013;-88
2022/08/07 04:16:24;;;;;;;8.65;4.10;;;11.50;99.90;;;;;;6145411;23;20013;-88
2022/08/07 04:18:50;;;;;;;6.55;3.70;;;11.50;99.90;;;;;;6143048;23;20018;-88
2022/08/07 04:21:16;;;;;;;7.10;4.25;;;11.50;99.90;;;;;;6146346;22;20323;-87
2022/08/07 04:23:42;;;;;;;6.72;3.78;;;11.50;99.90;;;;;;6143513;23;20480;-88
2022/08/07 04:26:07;;;;;;;6.25;3.83;;;11.50;99.90;;;;;;6145919;22;20028;-88
2022/08/07 04:28:33;;;;;;;8.10;4.25;;;11.50;99.90;;;;;;6143690;23;20101;-87
2022/08/07 04:30:59;;;;;;;6.88;4.07;;;11.50;99.90;;;;;;6119417;23;20045;-88
2022/08/07 04:33:25;;;;;;;7.90;3.90;;;11.50;99.90;;;;;;6143347;23;20075;-88
2022/08/07 04:35:52;;;;;;;8.43;4.65;;;11.40;99.90;;;;;;6145371;23;20342;-87
2022/08/07 04:38:18;;;;;;;9.32;4.80;;;11.40;99.90;;;;;;6144075;23;20446;-88
2022/08/07 04:40:44;;;;;;;8.75;5.25;;;11.30;99.90;;;;;;6145444;22;20032;-88
2022/08/07 04:43:11;;;;;;;10.20;4.70;;;11.30;99.90;;;;;;6143738;23;20018;-88
2022/08/07 04:45:40;;;;;;;9.68;4.88;;;11.30;99.90;;;;;;6143618;23;20021;-87
2022/08/07 04:48:16;;;;;;;7.35;4.45;;;11.30;99.90;;;;;;6145123;22;20468;-88
2022/08/07 04:50:54;;;;;;;9.05;4.97;;;11.20;99.90;;;;;;6144827;23;20430;-88
2022/08/07 04:53:30;;;;;;;6.90;4.20;;;11.30;99.90;;;;;;6145158;23;20063;-88
2022/08/07 04:56:23;;;;;;;7.40;4.22;;;11.30;99.90;;;;;;6144351;23;20379;-88
2022/08/07 04:59:03;;;;;;;6.85;4.15;;;11.30;99.90;;;;;;6126645;23;20378;-88
2022/08/07 05:01:45;;;;;;;7.07;4.03;;;11.30;99.90;;;;;;6144556;23;20393;-88
2022/08/07 05:04:22;;;;;;;7.53;3.35;;;11.30;99.90;;;;;;6146856;22;20021;-88
2022/08/07 05:07:08;;;;;;;8.27;4.70;;;11.30;99.90;;;;;;6146404;22;20085;-88
2022/08/07 05:09:42;;;;;;;7.18;3.95;;;11.30;99.90;;;;;;6144934;22;20345;-88
2022/08/07 05:12:12;;;;;;;6.78;4.10;;;11.40;99.90;;;;;;6147034;23;20018;-88
2022/08/07 05:14:43;;;;;;;6.38;3.75;;;11.40;99.90;;;;;;6146879;23;20468;-87
2022/08/07 05:17:12;;;;;;;6.85;3.78;;;11.30;99.90;;;;;;6144682;23;20028;-88
2022/08/07 05:19:43;;;;;;;6.63;4.07;;;11.40;99.90;;;;;;6144832;23;20110;-88
2022/08/07 05:22:10;;;;;;;7.70;4.07;;;11.40;99.90;;;;;;6145056;22;20461;-88
2022/08/07 05:24:38;;;;;;;7.68;4.25;;;11.50;99.90;;;;;;6120422;23;20009;-87
2022/08/07 05:27:06;;;;;;;10.50;4.50;;;11.50;99.90;;;;;;6146975;23;20013;-88
2022/08/07 05:29:35;;;;;;;6.70;4.15;;;11.50;99.90;;;;;;6144867;22;20122;-88
2022/08/07 05:32:02;;;;;;;11.07;5.00;;;11.60;99.90;;;;;;6145187;23;20693;-88
2022/08/07 05:34:28;;;;;;;9.95;5.07;;;11.60;99.90;;;;;;6144955;23;20349;-88
2022/08/07 05:36:55;;;;;;;10.10;4.60;;;11.60;99.90;;;;;;6146305;23;20380;-87
2022/08/07 05:39:22;;;;;;;7.50;4.72;;;11.70;99.90;;;;;;6146528;23;20441;-88
2022/08/07 05:41:48;;;;;;;9.02;4.38;;;11.70;99.90;;;;;;6144886;23;20029;-88
2022/08/07 05:44:17;;;;;;;9.95;5.00;;;11.70;99.90;;;;;;6146486;23;20035;-88
2022/08/07 05:46:44;;;;;;;8.90;5.35;;;11.80;99.90;;;;;;6146401;23;20465;-88
2022/08/07 05:49:10;;;;;;;9.43;5.53;;;11.80;99.90;;;;;;6144707;23;20468;-88
2022/08/07 05:51:37;;;;;;;8.95;4.85;;;11.90;99.90;;;;;;6144626;22;20021;-88
2022/08/07 05:54:03;;;;;;;9.18;5.63;;;11.90;99.90;;;;;;6146622;23;20029;-88
2022/08/07 05:56:30;;;;;;;9.18;5.10;;;12.00;99.90;;;;;;6146583;23;20029;-87
2022/08/07 05:58:58;;;;;;;14.88;6.07;;;12.00;99.90;;;;;;6145721;23;20072;-88
2022/08/07 06:01:26;;;;;;;10.77;5.88;;;12.10;99.90;;;;;;6144909;22;20025;-86
2022/08/07 06:03:54;;;;;;;9.35;6.18;;;12.20;99.90;;;;;;6146419;23;20013;-88
2022/08/07 06:06:20;;;;;;;12.75;6.18;;;12.20;99.90;;;;;;6145047;23;20058;-88
2022/08/07 06:08:46;;;;;;;9.23;5.65;;;12.30;99.90;;;;;;6120094;23;20045;-88
2022/08/07 06:11:12;;;;;;;11.60;6.53;;;12.30;99.90;;;;;;6144879;23;20117;-88
2022/08/07 06:13:39;;;;;;;13.80;7.90;;;12.40;99.90;;;;;;6143924;23;20272;-88
2022/08/07 06:16:06;;;;;;;9.48;6.32;;;12.50;99.90;;;;;;6146651;23;20017;-88
2022/08/07 06:18:33;;;;;;;12.95;7.75;;;12.60;99.90;;;;;;6120687;23;20009;-88
2022/08/07 06:21:00;;;;;;;11.85;7.28;;;12.70;99.90;;;;;;6146633;23;20152;-88
2022/08/07 06:23:26;;;;;;;12.38;7.78;;;12.80;99.90;;;;;;6144649;23;20093;-88
2022/08/07 06:25:51;;;;;;;12.10;7.45;;;12.80;99.90;;;;;;6144538;23;20107;-88
2022/08/07 06:28:17;;;;;;;12.80;7.20;;;12.90;99.90;;;;;;6144758;23;20472;-88
2022/08/07 06:30:43;;;;;;;11.95;6.82;;;13.00;99.90;;;;;;6145066;23;20064;-88
2022/08/07 06:33:09;;;;;;;15.77;8.15;;;13.10;99.90;;;;;;6145240;23;20005;-88
2022/08/07 06:35:35;;;;;;;12.50;7.75;;;13.20;99.90;;;;;;6144299;23;20072;-88
2022/08/07 06:38:05;;;;;;;12.75;7.57;;;13.30;99.90;;;;;;6144857;23;20017;-88
2022/08/07 06:40:39;;;;;;;13.40;7.90;;;13.30;99.90;;;;;;6120211;23;20342;-88
2022/08/07 06:43:08;;;;;;;11.68;7.75;;;13.50;99.90;;;;;;6144583;23;20024;-87
2022/08/07 06:45:33;;;;;;;12.90;7.57;;;13.50;99.90;;;;;;6144534;23;20067;-88
2022/08/07 06:48:00;;;;;;;12.38;7.50;;;13.60;99.90;;;;;;6144695;23;20017;-88
2022/08/07 06:50:28;;;;;;;10.73;6.80;;;13.70;99.90;;;;;;6144814;23;20437;-88
2022/08/07 06:52:55;;;;;;;15.15;7.15;;;13.70;99.90;;;;;;6146569;23;20018;-88
2022/08/07 06:55:29;;;;;;;10.75;6.47;;;13.80;99.90;;;;;;6146541;23;20029;-89
2022/08/07 06:58:00;;;;;;;;;;;13.90;99.90;;;;;;6119876;23;20010;-88
2022/08/07 07:00:29;;;;;;;10.50;6.88;;;14.00;99.90;;;;;;6119929;23;19920;-88
2022/08/07 07:02:55;;;;;;;10.10;6.40;;;14.10;99.90;;;;;;6144347;23;20018;-88
2022/08/07 07:05:21;;;;;;;9.35;6.07;;;14.10;99.90;;;;;;6144594;22;20014;-88
2022/08/07 07:07:47;;;;;;;13.27;6.47;;;14.20;99.90;;;;;;6119799;23;20043;-89
2022/08/07 07:10:13;;;;;;;13.85;6.13;;;14.20;99.90;;;;;;6144683;23;20041;-88
2022/08/07 07:12:47;;;;;;;14.63;5.95;;;14.30;99.90;;;;;;6144896;22;20033;-88
2022/08/07 07:15:27;;;;;;;8.45;5.68;;;14.30;99.90;;;;;;6144634;23;20388;-89
2022/08/07 07:18:30;;;;;;;9.18;6.28;;;14.40;99.90;;;;;;6146049;23;20021;-88
2022/08/07 07:21:02;;;;;;;8.73;5.80;;;14.40;99.90;;;;;;6121499;23;20017;-88
2022/08/07 07:23:31;;;;;;;10.45;5.00;;;14.40;99.90;;;;;;6144833;23;20087;-88
2022/08/07 07:26:01;;;;;;;8.77;5.63;;;14.60;99.90;;;;;;6145999;23;20025;-88
2022/08/07 07:28:36;;;;;;;8.52;5.63;;;14.70;99.90;;;;;;6144030;23;20053;-88
2022/08/07 07:31:11;;;;;;;10.18;5.65;;;14.90;99.90;;;;;;6144634;23;20022;-88
2022/08/07 07:33:38;;;;;;;7.15;4.57;;;15.10;99.90;;;;;;6144113;23;20159;-89
2022/08/07 07:36:04;;;;;;;9.48;4.70;;;15.30;99.90;;;;;;6120015;23;20019;-89
2022/08/07 07:38:32;;;;;;;9.82;3.88;;;15.50;99.90;;;;;;6146290;23;20017;-88
2022/08/07 07:41:02;;;;;;;6.15;3.65;;;15.60;99.90;;;;;;6145610;23;20025;-88
2022/08/07 07:43:30;;;;;;;6.55;3.60;;;15.70;99.90;;;;;;6144191;23;20025;-88
2022/08/07 07:45:55;;;;;;;6.70;3.03;;;15.80;99.90;;;;;;6145739;23;20013;-88
2022/08/07 07:48:23;;;;;;;7.00;3.38;;;15.80;99.90;;;;;;6146665;22;20519;-87
2022/08/07 07:50:51;;;;;;;5.65;2.97;;;15.90;99.90;;;;;;6144432;23;20045;-89
2022/08/07 07:53:19;;;;;;;7.35;2.92;;;16.00;99.90;;;;;;6144126;22;20021;-89
2022/08/07 07:55:45;;;;;;;5.40;3.20;;;16.10;99.90;;;;;;6144607;23;20025;-89
2022/08/07 07:58:11;;;;;;;6.80;3.45;;;16.30;99.90;;;;;;6144514;23;20017;-88
2022/08/07 08:00:38;;;;;;;10.20;4.03;;;16.40;99.90;;;;;;6145834;23;20027;-88
2022/08/07 08:03:08;;;;;;;6.78;3.60;;;16.60;99.90;;;;;;6119817;23;20013;-89
2022/08/07 08:05:37;;;;;;;6.82;3.53;;;16.80;99.90;;;;;;6145759;23;20017;-89
2022/08/07 08:08:03;;;;;;;5.57;3.25;;;17.00;99.90;;;;;;6144480;22;20018;-88
2022/08/07 08:10:30;;;;;;;5.88;3.67;;;17.10;99.90;;;;;;6143934;23;20032;-89
2022/08/07 08:12:57;;;;;;;6.32;3.72;;;17.20;99.90;;;;;;6119477;23;20013;-88
2022/08/07 08:15:24;;;;;;;6.90;3.60;;;17.50;99.90;;;;;;6143608;23;20414;-89
2022/08/07 08:17:50;;;;;;;7.22;3.95;;;17.50;99.90;;;;;;6143900;23;20338;-89
2022/08/07 08:20:17;;;;;;;6.10;3.60;;;17.70;99.90;;;;;;6144035;23;20022;-89
2022/08/07 08:28:22;;;;;;;5.80;3.28;;;18.00;99.90;;;;;;6147427;23;20025;-89
2022/08/07 08:30:52;;;;;;;7.43;3.40;;;18.10;99.90;;;;;;6144747;22;20024;-89
2022/08/07 08:33:21;;;;;;;7.35;3.13;;;18.20;99.90;;;;;;6147109;22;20452;-90
2022/08/07 08:35:49;;;;;;;5.72;3.35;;;18.30;99.90;;;;;;6146440;23;20488;-90
2022/08/07 08:38:18;;;;;;;5.30;3.20;;;18.50;99.90;;;;;;6144956;23;20342;-89
2022/08/07 08:40:51;;;;;;;7.18;3.20;;;18.60;99.90;;;;;;6145009;23;20022;-88
2022/08/07 08:43:27;;;;;;;5.43;3.27;;;18.70;99.90;;;;;;6145255;23;20448;-88
2022/08/07 08:46:07;;;;;;;5.95;3.45;;;18.80;99.90;;;;;;6146965;23;20025;-89
2022/08/07 08:48:56;;;;;;;6.70;3.00;;;18.90;99.90;;;;;;6145335;23;20015;-89
2022/08/07 08:51:36;;;;;;;6.43;2.72;;;19.20;99.90;;;;;;6154350;23;20380;-89
2022/08/07 08:54:19;;;;;;;4.20;2.40;;;19.40;99.90;;;;;;6146634;23;20025;-89
2022/08/07 08:56:49;;;;;;;4.22;2.45;;;19.60;99.90;;;;;;6144800;23;20025;-89
2022/08/07 08:59:45;;;;;;;5.80;2.80;;;19.70;99.90;;;;;;6145420;23;20017;-89
2022/08/07 09:02:33;;;;;;;5.53;2.72;;;19.70;99.90;;;;;;6145330;23;20044;-90
2022/08/07 09:05:17;;;;;;;5.65;2.75;;;19.80;99.90;;;;;;6146749;23;20014;-89
2022/08/07 09:08:19;;;;;;;5.25;2.25;;;20.00;99.90;;;;;;6147355;22;20026;-89
2022/08/07 09:11:01;;;;;;;6.05;2.67;;;20.00;99.90;;;;;;6146919;22;20018;-89
2022/08/07 09:14:02;;;;;;;6.63;2.67;;;20.00;99.90;;;;;;6145295;23;20091;-89
2022/08/07 09:17:08;;;;;;;5.15;2.40;;;20.00;99.70;;;;;;6121067;23;20028;-89
2022/08/07 09:20:18;;;;;;;6.57;2.35;;;20.00;99.90;;;;;;6098087;23;20079;-89
2022/08/07 09:22:53;;;;;;;4.93;2.35;;;20.10;99.80;;;;;;6146509;22;20026;-89
2022/08/07 09:25:41;;;;;;;3.60;1.80;;;20.10;99.90;;;;;;6145368;23;20021;-89
2022/08/07 09:28:12;;;;;;;4.72;2.17;;;20.20;99.60;;;;;;6145657;23;20028;-89
2022/08/07 09:30:58;;;;;;;4.78;1.88;;;20.40;99.60;;;;;;6144539;23;20025;-89
2022/08/07 09:33:42;;;;;;;4.88;2.28;;;20.50;98.70;;;;;;6147434;23;20083;-89
2022/08/07 09:36:14;;;;;;;4.10;2.30;;;20.60;99.20;;;;;;6119454;23;20033;-90
2022/08/07 09:38:58;;;;;;;4.57;2.10;;;20.70;98.40;;;;;;6145233;23;20060;-89
2022/08/07 09:41:43;;;;;;;4.53;2.38;;;20.80;98.00;;;;;;6147031;23;20017;-90
2022/08/07 09:44:43;;;;;;;3.90;2.22;;;20.90;97.10;;;;;;6147219;23;20075;-89
2022/08/07 09:47:22;;;;;;;5.57;2.60;;;21.00;97.30;;;;;;6146831;22;20458;-89
2022/08/07 09:50:14;;;;;;;5.13;2.05;;;21.20;97.20;;;;;;6146916;22;20064;-90
2022/08/07 09:52:50;;;;;;;4.85;2.00;;;21.30;96.90;;;;;;6146255;23;20049;-90
2022/08/07 09:55:30;;;;;;;3.55;2.00;;;21.50;96.80;;;;;;6146184;23;20022;-89
2022/08/07 09:58:18;;;;;;;4.72;2.00;;;21.60;97.00;;;;;;6144791;23;20269;-90
2022/08/07 10:01:21;;;;;;;4.30;2.25;;;21.70;96.00;;;;;;6147000;22;20056;-89
2022/08/07 10:04:09;;;;;;;3.45;1.83;;;21.70;94.30;;;;;;6146135;23;20480;-90
2022/08/07 10:07:12;;;;;;;4.45;1.90;;;21.80;95.50;;;;;;6144099;23;20022;-90
2022/08/07 10:10:08;;;;;;;3.30;1.92;;;21.80;94.30;;;;;;6145104;23;20785;-89
2022/08/07 10:12:42;;;;;;;4.03;2.22;;;21.90;94.40;;;;;;6146644;22;20032;-90
2022/08/07 10:15:21;;;;;;;4.15;2.03;;;21.90;95.30;;;;;;6146730;22;20469;-90
2022/08/07 10:18:09;;;;;;;3.50;2.00;;;22.00;94.30;;;;;;6144873;23;20718;-89
2022/08/07 10:21:15;;;;;;;4.63;2.00;;;22.00;94.60;;;;;;6143931;23;20025;-90
2022/08/07 10:24:19;;;;;;;3.40;1.95;;;22.00;93.30;;;;;;6145032;22;20067;-89
2022/08/07 10:26:53;;;;;;;3.78;1.73;;;22.10;93.90;;;;;;6144782;23;20345;-90
2022/08/07 10:29:28;;;;;;;3.70;2.17;;;22.20;94.80;;;;;;6144853;23;20449;-90
2022/08/07 10:32:23;;;;;;;5.63;2.45;;;22.20;94.70;;;;;;6144563;23;20029;-89
2022/08/07 10:35:08;;;;;;;2.88;1.70;;;22.30;93.60;;;;;;6144136;23;20442;-90
2022/08/07 10:37:52;;;;;;;4.88;1.80;;;22.40;93.80;;;;;;6119970;23;20100;-89
2022/08/07 10:40:27;;;;;;;3.17;1.83;;;22.40;92.80;;;;;;6145013;23;20026;-90
2022/08/07 10:43:14;;;;;;;3.80;1.63;;;22.40;93.10;;;;;;6120117;23;20025;-90
2022/08/07 10:45:48;;;;;;;3.95;1.67;;;22.60;93.20;;;;;;6144636;23;20342;-91
2022/08/07 10:48:47;;;;;;;3.85;1.77;;;22.60;92.60;;;;;;6120243;23;20507;-90
2022/08/07 10:51:39;;;;;;;3.13;1.60;;;22.80;93.40;;;;;;6146874;23;20029;-89
2022/08/07 10:54:27;;;;;;;3.65;1.70;;;22.90;92.10;;;;;;6146730;23;20401;-88
2022/08/07 10:57:05;;;;;;;3.85;1.70;;;23.00;92.50;;;;;;6146215;23;20049;-90
2022/08/07 11:00:05;;;;;;;4.15;1.73;;;23.10;91.50;;;;;;6145318;23;20039;-90
2022/08/07 11:02:40;;;;;;;2.72;1.30;;;23.10;90.60;;;;;;6120001;23;20078;-91
2022/08/07 11:05:14;;;;;;;2.83;1.52;;;23.20;91.70;;;;;;6144642;23;20443;-89
2022/08/07 11:08:05;;;;;;;4.53;2.00;;;23.30;91.40;;;;;;6145893;22;20472;-90
2022/08/07 11:10:44;;;;;;;4.28;1.70;;;23.50;91.80;;;;;;6146741;22;20055;-89
2022/08/07 11:13:31;;;;;;;3.63;1.73;;;23.50;91.70;;;;;;6146456;23;20017;-90
2022/08/07 11:16:04;;;;;;;4.55;1.67;;;23.50;90.50;;;;;;6119884;23;20086;-90
2022/08/07 11:18:48;;;;;;;2.93;1.40;;;23.60;91.50;;;;;;6144843;23;20045;-90
2022/08/07 11:21:23;;;;;;;2.92;1.50;;;23.60;91.10;;;;;;6122604;23;20288;-90
2022/08/07 11:23:58;;;;;;;3.10;1.55;;;23.70;90.60;;;;;;6145250;23;20601;-91
2022/08/07 11:26:38;;;;;;;3.00;1.33;;;23.70;88.70;;;;;;6144572;23;20021;-90
2022/08/07 11:29:38;;;;;;;2.95;1.30;;;23.80;89.80;;;;;;6120779;23;20442;-90
2022/08/07 11:32:16;;;;;;;2.60;1.33;;;23.90;86.20;;;;;;6161026;23;20018;-89
2022/08/07 11:34:53;;;;;;;2.60;1.20;;;23.90;88.10;;;;;;6119698;23;20022;-89
2022/08/07 11:37:56;;;;;;;3.58;1.20;;;24.10;87.30;;;;;;6146574;23;20089;-90
2022/08/07 11:40:32;;;;;;;2.90;1.20;;;24.10;86.30;;;;;;6144720;23;20063;-91
2022/08/07 11:43:06;;;;;;;3.38;1.40;;;24.20;87.30;;;;;;6146475;23;20037;-90
2022/08/07 11:45:53;;;;;;;2.47;1.35;;;24.30;88.20;;;;;;6119706;23;20009;-90
2022/08/07 11:49:07;;;;;;;4.93;1.30;;;24.50;86.10;;;;;;6144000;23;20028;-90
2022/08/07 11:51:39;;;;;;;2.58;1.13;;;24.50;85.10;;;;;;6157755;23;20018;-92
2022/08/07 11:54:23;;;;;;;3.97;1.30;;;24.60;83.80;;;;;;6144222;22;20319;-90
2022/08/07 11:57:04;;;;;;;2.47;1.10;;;24.60;86.80;;;;;;6119954;23;20031;-91
2022/08/07 11:59:54;;;;;;;3.13;1.45;;;24.70;86.90;;;;;;6169091;23;20414;-90
2022/08/07 12:02:38;;;;;;;2.38;1.13;;;24.80;85.20;;;;;;6119394;23;20022;-90
2022/08/07 12:05:24;;;;;;;3.92;1.25;;;24.90;85.60;;;;;;6144551;22;20067;-90
2022/08/07 12:08:05;;;;;;;2.88;1.38;;;25.00;84.50;;;;;;6144060;23;20107;-89
2022/08/07 12:11:15;;;;;;;3.47;1.30;;;25.10;84.10;;;;;;6144714;23;20148;-91
2022/08/07 12:13:57;;;;;;;3.65;1.30;;;25.30;84.20;;;;;;6210887;23;20020;-90
2022/08/07 12:16:39;;;;;;;3.42;1.40;;;25.40;85.50;;;;;;6211564;23;20466;-90
2022/08/07 12:19:26;;;;;;;2.35;1.05;;;25.60;88.60;;;;;;6237590;23;20017;-90
2022/08/07 12:22:03;;;;;;;2.67;1.13;;;25.70;82.60;;;;;;6237004;23;20420;-90
2022/08/07 12:25:51;;;;;;;4.35;1.10;;;25.70;83.40;;;;;;6237083;23;20100;-90
2022/08/07 12:27:32;;;;;;;4.93;1.48;;;25.60;82.40;;;;;;6211682;23;20051;-91
2022/08/07 12:30:05;;;;;;;3.03;1.48;;;25.70;83.70;;;;;;6212006;23;20020;-92
2022/08/07 12:32:56;;;;;;;2.72;1.42;;;25.70;83.40;;;;;;6236848;23;20099;-90
2022/08/07 12:35:24;;;;;;;3.15;1.38;;;25.70;84.30;;;;;;6211396;23;20395;-90
2022/08/07 12:37:51;;;;;;;3.03;1.27;;;25.70;84.10;;;;;;6211446;23;20016;-89
2022/08/07 12:40:22;;;;;;;6.30;1.33;;;25.70;83.00;;;;;;6211807;23;20091;-89
2022/08/07 12:42:51;;;;;;;3.00;1.20;;;25.60;83.10;;;;;;6211102;23;20387;-90
2022/08/07 12:45:30;;;;;;;3.15;1.42;;;25.60;82.40;;;;;;6236674;23;20042;-90
2022/08/07 12:48:10;;;;;;;3.38;1.17;;;25.70;83.20;;;;;;6186189;23;20096;-91
2022/08/07 12:50:39;;;;;;;2.20;1.10;;;25.80;85.10;;;;;;6143755;23;20021;-90
2022/08/07 12:53:19;;;;;;;4.07;1.27;;;25.70;84.60;;;;;;6119120;23;20013;-90
2022/08/07 12:56:02;;;;;;;2.92;0.90;;;25.50;82.40;;;;;;6143226;22;20021;-90
2022/08/07 12:58:36;;;;;;;2.08;1.10;;;25.50;79.80;;;;;;6145706;23;20024;-90
2022/08/07 13:01:05;;;;;;;2.38;1.20;;;25.50;83.80;;;;;;6143923;23;20017;-91
2022/08/07 13:03:58;;;;;;;5.05;0.95;;;25.60;83.00;;;;;;6143509;23;20017;-90
2022/08/07 13:07:09;;;;;;;3.90;0.93;;;25.80;83.00;;;;;;6143868;23;20021;-92
2022/08/07 13:09:50;;;;;;;2.10;1.00;;;26.00;79.40;;;;;;6148648;23;20018;-89
2022/08/07 13:12:35;;;;;;;3.28;0.80;;;26.10;81.50;;;;;;6120425;23;20500;-90
2022/08/07 13:15:25;;;;;;;2.58;0.90;;;26.20;79.40;;;;;;6144817;23;20060;-91
2022/08/07 13:18:14;;;;;;;3.53;1.00;;;26.10;80.10;;;;;;6120316;23;20013;-91
2022/08/07 13:20:45;;;;;;;3.35;1.20;;;26.30;83.70;;;;;;6144937;22;20071;-90
2022/08/07 13:23:14;;;;;;;2.80;1.00;;;26.40;82.90;;;;;;6145352;23;20017;-90